sensor_id;sensor_type;location;lat;lon;timestamp;temperature;humidity
69031;DHT22;56083;48.774;8.942;2023-06-04T00:00:37;12.60;99.90
69031;DHT22;56083;48.774;8.942;2023-06-04T00:03:03;12.60;99.90
69031;DHT22;56083;48.774;8.942;2023-06-04T00:05:28;12.60;99.90
69031;DHT22;56083;48.774;8.942;2023-06-04T00:07:54;12.50;99.90
69031;DHT22;56083;48.774;8.942;2023-06-04T00:10:19;12.50;99.90
69031;DHT22;56083;48.774;8.942;2023-06-04T00:12:45;12.50;99.90
69031;DHT22;56083;48.774;8.942;2023-06-04T00:15:10;12.40;99.90
69031;DHT22;56083;48.774;8.942;2023-06-04T00:17:36;12.40;99.90
69031;DHT22;56083;48.774;8.942;2023-06-04T00:20:02;12.30;99.90
69031;DHT22;56083;48.774;8.942;2023-06-04T00:22:28;12.30;99.90
69031;DHT22;56083;48.774;8.942;2023-06-04T00:24:54;12.30;99.90
69031;DHT22;56083;48.774;8.942;2023-06-04T00:27:19;12.20;99.90
69031;DHT22;56083;48.774;8.942;2023-06-04T00:29:45;12.20;99.90
69031;DHT22;56083;48.774;8.942;2023-06-04T00:32:11;12.10;99.90
69031;DHT22;56083;48.774;8.942;2023-06-04T00:34:36;12.10;99.90
69031;DHT22;56083;48.774;8.942;2023-06-04T00:37:02;12.00;99.90
69031;DHT22;56083;48.774;8.942;2023-06-04T00:39:28;12.00;99.90
69031;DHT22;56083;48.774;8.942;2023-06-04T00:41:54;11.90;99.90
69031;DHT22;56083;48.774;8.942;2023-06-04T00:44:20;11.90;99.90
69031;DHT22;56083;48.774;8.942;2023-06-04T00:46:47;11.80;99.90
69031;DHT22;56083;48.774;8.942;2023-06-04T00:49:14;11.80;99.90
69031;DHT22;56083;48.774;8.942;2023-06-04T00:51:40;11.80;99.90
69031;DHT22;56083;48.774;8.942;2023-06-04T00:54:07;11.70;99.90
69031;DHT22;56083;48.774;8.942;2023-06-04T00:56:37;11.60;99.90
69031;DHT22;56083;48.774;8.942;2023-06-04T00:59:08;11.60;99.90
69031;DHT22;56083;48.774;8.942;2023-06-04T01:04:29;11.70;99.90
69031;DHT22;56083;48.774;8.942;2023-06-04T01:06:57;11.60;99.90
69031;DHT22;56083;48.774;8.942;2023-06-04T01:09:26;11.60;99.90
69031;DHT22;56083;48.774;8.942;2023-06-04T01:11:53;11.50;99.90
69031;DHT22;56083;48.774;8.942;2023-06-04T01:14:19;11.50;99.90
69031;DHT22;56083;48.774;8.942;2023-06-04T01:16:57;11.50;99.90
69031;DHT22;56083;48.774;8.942;2023-06-04T01:22:04;11.30;99.90
69031;DHT22;56083;48.774;8.942;2023-06-04T01:24:37;11.30;99.90
69031;DHT22;56083;48.774;8.942;2023-06-04T01:27:06;11.20;99.90
69031;DHT22;56083;48.774;8.942;2023-06-04T01:29:33;11.20;99.90
69031;DHT22;56083;48.774;8.942;2023-06-04T01:32:01;11.20;99.90
69031;DHT22;56083;48.774;8.942;2023-06-04T01:34:27;11.20;99.90
69031;DHT22;56083;48.774;8.942;2023-06-04T01:36:53;11.20;99.90
69031;DHT22;56083;48.774;8.942;2023-06-04T01:39:19;11.20;99.90
69031;DHT22;56083;48.774;8.942;2023-06-04T01:41:44;11.20;99.90
69031;DHT22;56083;48.774;8.942;2023-06-04T01:44:10;11.10;99.90
69031;DHT22;56083;48.774;8.942;2023-06-04T01:46:35;11.10;99.90
69031;DHT22;56083;48.774;8.942;2023-06-04T01:49:01;11.10;99.90
69031;DHT22;56083;48.774;8.942;2023-06-04T01:51:27;11.00;99.90
69031;DHT22;56083;48.774;8.942;2023-06-04T01:53:52;10.90;99.90
69031;DHT22;56083;48.774;8.942;2023-06-04T01:56:18;10.80;99.90
69031;DHT22;56083;48.774;8.942;2023-06-04T01:58:46;10.80;99.90
69031;DHT22;56083;48.774;8.942;2023-06-04T02:01:11;10.80;99.90
69031;DHT22;56083;48.774;8.942;2023-06-04T02:03:37;10.80;99.90
69031;DHT22;56083;48.774;8.942;2023-06-04T02:06:04;10.80;99.90
69031;DHT22;56083;48.774;8.942;2023-06-04T02:08:33;10.70;99.90
69031;DHT22;56083;48.774;8.942;2023-06-04T02:10:59;10.70;99.90
69031;DHT22;56083;48.774;8.942;2023-06-04T02:13:25;10.70;99.90
69031;DHT22;56083;48.774;8.942;2023-06-04T02:15:50;10.70;99.90
69031;DHT22;56083;48.774;8.942;2023-06-04T02:18:18;10.70;99.90
69031;DHT22;56083;48.774;8.942;2023-06-04T02:20:47;10.70;99.90
69031;DHT22;56083;48.774;8.942;2023-06-04T02:23:14;10.60;99.90
69031;DHT22;56083;48.774;8.942;2023-06-04T02:25:41;10.60;99.90
69031;DHT22;56083;48.774;8.942;2023-06-04T02:28:08;10.60;99.90
69031;DHT22;56083;48.774;8.942;2023-06-04T02:30:33;10.60;99.90
69031;DHT22;56083;48.774;8.942;2023-06-04T02:32:59;10.60;99.90
69031;DHT22;56083;48.774;8.942;2023-06-04T02:35:27;10.60;99.90
69031;DHT22;56083;48.774;8.942;2023-06-04T02:37:53;10.60;99.90
69031;DHT22;56083;48.774;8.942;2023-06-04T02:40:19;10.50;99.90
69031;DHT22;56083;48.774;8.942;2023-06-04T02:42:44;10.40;99.90
69031;DHT22;56083;48.774;8.942;2023-06-04T02:45:10;10.40;99.90
69031;DHT22;56083;48.774;8.942;2023-06-04T02:47:36;10.30;99.90
69031;DHT22;56083;48.774;8.942;2023-06-04T02:50:02;10.40;99.90
69031;DHT22;56083;48.774;8.942;2023-06-04T02:52:29;10.30;99.90
69031;DHT22;56083;48.774;8.942;2023-06-04T02:54:56;10.30;99.90
69031;DHT22;56083;48.774;8.942;2023-06-04T02:57:21;10.30;99.90
69031;DHT22;56083;48.774;8.942;2023-06-04T02:59:47;10.30;99.90
69031;DHT22;56083;48.774;8.942;2023-06-04T03:02:12;10.20;99.90
69031;DHT22;56083;48.774;8.942;2023-06-04T03:04:41;10.20;99.90
69031;DHT22;56083;48.774;8.942;2023-06-04T03:07:08;10.30;99.90
69031;DHT22;56083;48.774;8.942;2023-06-04T03:09:36;10.30;99.90
69031;DHT22;56083;48.774;8.942;2023-06-04T03:12:03;10.30;99.90
69031;DHT22;56083;48.774;8.942;2023-06-04T03:14:29;10.20;99.90
69031;DHT22;56083;48.774;8.942;2023-06-04T03:17:01;10.20;99.90
69031;DHT22;56083;48.774;8.942;2023-06-04T03:19:37;10.20;99.90
69031;DHT22;56083;48.774;8.942;2023-06-04T03:22:04;10.20;99.90
69031;DHT22;56083;48.774;8.942;2023-06-04T03:24:38;10.20;99.90
69031;DHT22;56083;48.774;8.942;2023-06-04T03:27:04;10.20;99.90
69031;DHT22;56083;48.774;8.942;2023-06-04T03:29:31;10.10;99.90
69031;DHT22;56083;48.774;8.942;2023-06-04T03:31:57;10.00;99.90
69031;DHT22;56083;48.774;8.942;2023-06-04T03:34:23;10.00;99.90
69031;DHT22;56083;48.774;8.942;2023-06-04T03:36:52;10.00;99.90
69031;DHT22;56083;48.774;8.942;2023-06-04T03:39:18;10.00;99.90
69031;DHT22;56083;48.774;8.942;2023-06-04T03:41:44;10.00;99.90
69031;DHT22;56083;48.774;8.942;2023-06-04T03:44:12;10.00;99.90
69031;DHT22;56083;48.774;8.942;2023-06-04T03:46:39;10.10;99.90
69031;DHT22;56083;48.774;8.942;2023-06-04T03:49:05;10.10;99.90
69031;DHT22;56083;48.774;8.942;2023-06-04T03:51:30;10.10;99.90
69031;DHT22;56083;48.774;8.942;2023-06-04T03:53:58;10.20;99.90
69031;DHT22;56083;48.774;8.942;2023-06-04T03:56:23;10.30;99.90
69031;DHT22;56083;48.774;8.942;2023-06-04T03:58:49;10.20;99.90
69031;DHT22;56083;48.774;8.942;2023-06-04T04:01:16;10.20;99.90
69031;DHT22;56083;48.774;8.942;2023-06-04T04:03:42;10.20;99.90
69031;DHT22;56083;48.774;8.942;2023-06-04T04:06:09;10.10;99.90
69031;DHT22;56083;48.774;8.942;2023-06-04T04:08:36;10.10;99.90
69031;DHT22;56083;48.774;8.942;2023-06-04T04:11:02;10.20;99.90
69031;DHT22;56083;48.774;8.942;2023-06-04T04:13:28;10.30;99.90
69031;DHT22;56083;48.774;8.942;2023-06-04T04:15:53;10.30;99.90
69031;DHT22;56083;48.774;8.942;2023-06-04T04:18:22;10.30;99.90
69031;DHT22;56083;48.774;8.942;2023-06-04T04:20:47;10.40;99.90
69031;DHT22;56083;48.774;8.942;2023-06-04T04:23:13;10.40;99.90
69031;DHT22;56083;48.774;8.942;2023-06-04T04:25:39;10.40;99.90
69031;DHT22;56083;48.774;8.942;2023-06-04T04:28:05;10.50;99.90
69031;DHT22;56083;48.774;8.942;2023-06-04T04:30:34;10.60;99.90
69031;DHT22;56083;48.774;8.942;2023-06-04T04:33:01;10.60;99.90
69031;DHT22;56083;48.774;8.942;2023-06-04T04:35:27;10.70;99.90
69031;DHT22;56083;48.774;8.942;2023-06-04T04:37:54;10.80;99.90
69031;DHT22;56083;48.774;8.942;2023-06-04T04:40:20;10.90;99.90
69031;DHT22;56083;48.774;8.942;2023-06-04T04:42:46;11.00;99.90
69031;DHT22;56083;48.774;8.942;2023-06-04T04:45:11;11.10;99.90
69031;DHT22;56083;48.774;8.942;2023-06-04T04:47:37;11.20;99.90
69031;DHT22;56083;48.774;8.942;2023-06-04T04:50:04;11.30;99.90
69031;DHT22;56083;48.774;8.942;2023-06-04T04:52:30;11.30;99.90
69031;DHT22;56083;48.774;8.942;2023-06-04T04:54:55;11.40;99.90
69031;DHT22;56083;48.774;8.942;2023-06-04T04:57:25;11.50;99.90
69031;DHT22;56083;48.774;8.942;2023-06-04T04:59:51;11.60;99.90
69031;DHT22;56083;48.774;8.942;2023-06-04T05:02:17;11.70;99.90
69031;DHT22;56083;48.774;8.942;2023-06-04T05:04:42;11.70;99.90
69031;DHT22;56083;48.774;8.942;2023-06-04T05:07:08;11.90;99.90
69031;DHT22;56083;48.774;8.942;2023-06-04T05:09:33;12.00;99.90
69031;DHT22;56083;48.774;8.942;2023-06-04T05:11:59;12.20;99.90
69031;DHT22;56083;48.774;8.942;2023-06-04T05:14:25;12.20;99.90
69031;DHT22;56083;48.774;8.942;2023-06-04T05:16:51;12.40;99.90
69031;DHT22;56083;48.774;8.942;2023-06-04T05:19:17;12.60;99.90
69031;DHT22;56083;48.774;8.942;2023-06-04T05:21:42;12.70;99.90
69031;DHT22;56083;48.774;8.942;2023-06-04T05:24:09;12.80;99.90
69031;DHT22;56083;48.774;8.942;2023-06-04T05:26:36;13.00;99.90
69031;DHT22;56083;48.774;8.942;2023-06-04T05:29:02;13.10;99.90
69031;DHT22;56083;48.774;8.942;2023-06-04T05:31:29;13.20;99.90
69031;DHT22;56083;48.774;8.942;2023-06-04T05:33:59;13.30;99.90
69031;DHT22;56083;48.774;8.942;2023-06-04T05:36:27;13.40;99.90
69031;DHT22;56083;48.774;8.942;2023-06-04T05:38:53;13.60;99.90
69031;DHT22;56083;48.774;8.942;2023-06-04T05:41:31;13.60;99.90
69031;DHT22;56083;48.774;8.942;2023-06-04T05:43:57;13.70;99.90
69031;DHT22;56083;48.774;8.942;2023-06-04T05:46:22;13.80;99.90
69031;DHT22;56083;48.774;8.942;2023-06-04T05:48:48;13.90;99.90
69031;DHT22;56083;48.774;8.942;2023-06-04T05:51:14;14.00;99.90
69031;DHT22;56083;48.774;8.942;2023-06-04T05:53:39;14.20;99.90
69031;DHT22;56083;48.774;8.942;2023-06-04T05:56:05;14.20;99.90
69031;DHT22;56083;48.774;8.942;2023-06-04T05:58:33;14.40;99.90
69031;DHT22;56083;48.774;8.942;2023-06-04T06:00:59;14.50;99.90
69031;DHT22;56083;48.774;8.942;2023-06-04T06:03:25;14.60;99.90
69031;DHT22;56083;48.774;8.942;2023-06-04T06:05:52;14.80;99.90
69031;DHT22;56083;48.774;8.942;2023-06-04T06:08:19;14.90;99.90
69031;DHT22;56083;48.774;8.942;2023-06-04T06:10:45;15.00;99.90
69031;DHT22;56083;48.774;8.942;2023-06-04T06:13:11;15.20;99.90
69031;DHT22;56083;48.774;8.942;2023-06-04T06:15:37;15.30;99.90
69031;DHT22;56083;48.774;8.942;2023-06-04T06:18:02;15.50;99.90
69031;DHT22;56083;48.774;8.942;2023-06-04T06:20:28;15.80;99.90
69031;DHT22;56083;48.774;8.942;2023-06-04T06:22:54;16.00;99.90
69031;DHT22;56083;48.774;8.942;2023-06-04T06:25:20;16.00;99.90
69031;DHT22;56083;48.774;8.942;2023-06-04T06:27:45;16.00;99.90
69031;DHT22;56083;48.774;8.942;2023-06-04T06:30:12;15.90;99.90
69031;DHT22;56083;48.774;8.942;2023-06-04T06:32:40;15.90;99.90
69031;DHT22;56083;48.774;8.942;2023-06-04T06:35:06;16.00;99.90
69031;DHT22;56083;48.774;8.942;2023-06-04T06:37:33;16.00;99.90
69031;DHT22;56083;48.774;8.942;2023-06-04T06:39:58;16.40;99.90
69031;DHT22;56083;48.774;8.942;2023-06-04T06:42:24;16.70;99.90
69031;DHT22;56083;48.774;8.942;2023-06-04T06:44:50;17.00;99.90
69031;DHT22;56083;48.774;8.942;2023-06-04T06:47:16;17.30;99.90
69031;DHT22;56083;48.774;8.942;2023-06-04T06:49:42;17.60;99.90
69031;DHT22;56083;48.774;8.942;2023-06-04T06:52:08;17.80;99.90
69031;DHT22;56083;48.774;8.942;2023-06-04T06:54:33;18.10;99.90
69031;DHT22;56083;48.774;8.942;2023-06-04T06:56:59;18.30;99.90
69031;DHT22;56083;48.774;8.942;2023-06-04T06:59:25;18.50;99.90
69031;DHT22;56083;48.774;8.942;2023-06-04T07:01:51;18.80;99.90
69031;DHT22;56083;48.774;8.942;2023-06-04T07:04:16;19.10;99.90
69031;DHT22;56083;48.774;8.942;2023-06-04T07:06:43;19.30;99.90
69031;DHT22;56083;48.774;8.942;2023-06-04T07:09:08;19.60;99.90
69031;DHT22;56083;48.774;8.942;2023-06-04T07:11:35;19.80;99.90
69031;DHT22;56083;48.774;8.942;2023-06-04T07:14:00;20.00;99.90
69031;DHT22;56083;48.774;8.942;2023-06-04T07:16:29;20.00;99.90
69031;DHT22;56083;48.774;8.942;2023-06-04T07:18:54;20.20;99.90
69031;DHT22;56083;48.774;8.942;2023-06-04T07:21:20;20.30;99.90
69031;DHT22;56083;48.774;8.942;2023-06-04T07:23:47;20.30;99.90
69031;DHT22;56083;48.774;8.942;2023-06-04T07:26:15;20.40;99.90
69031;DHT22;56083;48.774;8.942;2023-06-04T07:28:41;20.60;99.90
69031;DHT22;56083;48.774;8.942;2023-06-04T07:31:07;20.50;99.90
69031;DHT22;56083;48.774;8.942;2023-06-04T07:33:33;20.40;99.90
69031;DHT22;56083;48.774;8.942;2023-06-04T07:35:59;20.70;99.90
69031;DHT22;56083;48.774;8.942;2023-06-04T07:38:25;20.30;99.90
69031;DHT22;56083;48.774;8.942;2023-06-04T07:40:51;20.20;99.90
69031;DHT22;56083;48.774;8.942;2023-06-04T07:43:17;19.80;99.90
69031;DHT22;56083;48.774;8.942;2023-06-04T07:45:42;19.90;99.90
69031;DHT22;56083;48.774;8.942;2023-06-04T07:48:11;20.30;99.90
69031;DHT22;56083;48.774;8.942;2023-06-04T07:50:37;21.00;99.90
69031;DHT22;56083;48.774;8.942;2023-06-04T07:53:03;22.00;99.90
69031;DHT22;56083;48.774;8.942;2023-06-04T07:55:28;22.80;99.90
69031;DHT22;56083;48.774;8.942;2023-06-04T07:57:54;23.40;99.90
69031;DHT22;56083;48.774;8.942;2023-06-04T08:00:20;24.00;99.90
69031;DHT22;56083;48.774;8.942;2023-06-04T08:02:45;24.60;99.90
69031;DHT22;56083;48.774;8.942;2023-06-04T08:05:11;25.20;99.90
69031;DHT22;56083;48.774;8.942;2023-06-04T08:07:39;25.50;99.90
69031;DHT22;56083;48.774;8.942;2023-06-04T08:10:06;26.10;97.90
69031;DHT22;56083;48.774;8.942;2023-06-04T08:12:32;26.10;97.00
69031;DHT22;56083;48.774;8.942;2023-06-04T08:14:58;26.70;94.40
69031;DHT22;56083;48.774;8.942;2023-06-04T08:17:23;26.80;93.10
69031;DHT22;56083;48.774;8.942;2023-06-04T08:19:49;26.70;92.80
69031;DHT22;56083;48.774;8.942;2023-06-04T08:22:15;26.90;91.50
69031;DHT22;56083;48.774;8.942;2023-06-04T08:24:41;27.00;89.10
69031;DHT22;56083;48.774;8.942;2023-06-04T08:27:07;27.60;89.00
69031;DHT22;56083;48.774;8.942;2023-06-04T08:29:34;28.00;86.00
69031;DHT22;56083;48.774;8.942;2023-06-04T08:32:01;28.50;81.80
69031;DHT22;56083;48.774;8.942;2023-06-04T08:34:28;28.50;80.10
69031;DHT22;56083;48.774;8.942;2023-06-04T08:36:53;28.60;77.30
69031;DHT22;56083;48.774;8.942;2023-06-04T08:39:19;28.60;76.80
69031;DHT22;56083;48.774;8.942;2023-06-04T08:41:48;29.10;76.00
69031;DHT22;56083;48.774;8.942;2023-06-04T08:44:16;29.40;74.40
69031;DHT22;56083;48.774;8.942;2023-06-04T08:46:43;29.60;71.50
69031;DHT22;56083;48.774;8.942;2023-06-04T08:49:12;29.50;70.40
69031;DHT22;56083;48.774;8.942;2023-06-04T08:51:39;29.40;69.50
69031;DHT22;56083;48.774;8.942;2023-06-04T08:54:06;29.50;68.80
69031;DHT22;56083;48.774;8.942;2023-06-04T08:56:36;30.10;69.90
69031;DHT22;56083;48.774;8.942;2023-06-04T08:59:04;30.10;67.20
69031;DHT22;56083;48.774;8.942;2023-06-04T09:01:34;30.50;66.70
69031;DHT22;56083;48.774;8.942;2023-06-04T09:04:04;30.10;66.50
69031;DHT22;56083;48.774;8.942;2023-06-04T09:06:32;29.90;65.90
69031;DHT22;56083;48.774;8.942;2023-06-04T09:08:59;30.30;66.00
69031;DHT22;56083;48.774;8.942;2023-06-04T09:11:27;30.40;64.30
69031;DHT22;56083;48.774;8.942;2023-06-04T09:13:58;30.70;63.30
69031;DHT22;56083;48.774;8.942;2023-06-04T09:16:25;30.80;61.90
69031;DHT22;56083;48.774;8.942;2023-06-04T09:18:50;30.80;62.20
69031;DHT22;56083;48.774;8.942;2023-06-04T09:21:16;30.90;60.80
69031;DHT22;56083;48.774;8.942;2023-06-04T09:23:48;30.40;60.80
69031;DHT22;56083;48.774;8.942;2023-06-04T09:26:14;30.60;60.50
69031;DHT22;56083;48.774;8.942;2023-06-04T09:28:46;30.30;59.70
69031;DHT22;56083;48.774;8.942;2023-06-04T09:31:17;30.80;60.40
69031;DHT22;56083;48.774;8.942;2023-06-04T09:33:49;30.70;59.00
69031;DHT22;56083;48.774;8.942;2023-06-04T09:36:16;30.90;59.30
69031;DHT22;56083;48.774;8.942;2023-06-04T09:38:42;31.20;58.10
69031;DHT22;56083;48.774;8.942;2023-06-04T09:41:12;31.20;57.80
69031;DHT22;56083;48.774;8.942;2023-06-04T09:43:38;31.30;57.90
69031;DHT22;56083;48.774;8.942;2023-06-04T09:48:39;32.30;56.60
69031;DHT22;56083;48.774;8.942;2023-06-04T09:51:14;32.60;56.10
69031;DHT22;56083;48.774;8.942;2023-06-04T09:53:55;33.10;54.50
69031;DHT22;56083;48.774;8.942;2023-06-04T09:56:22;33.20;53.90
69031;DHT22;56083;48.774;8.942;2023-06-04T09:58:49;33.00;54.30
69031;DHT22;56083;48.774;8.942;2023-06-04T10:01:15;33.50;54.70
69031;DHT22;56083;48.774;8.942;2023-06-04T10:03:46;34.00;53.00
69031;DHT22;56083;48.774;8.942;2023-06-04T10:06:15;34.10;52.30
69031;DHT22;56083;48.774;8.942;2023-06-04T10:08:42;34.20;51.80
69031;DHT22;56083;48.774;8.942;2023-06-04T10:11:09;34.00;50.80
69031;DHT22;56083;48.774;8.942;2023-06-04T10:13:47;34.40;51.60
69031;DHT22;56083;48.774;8.942;2023-06-04T10:16:14;34.60;48.60
69031;DHT22;56083;48.774;8.942;2023-06-04T10:18:40;34.80;50.30
69031;DHT22;56083;48.774;8.942;2023-06-04T10:21:08;35.10;48.40
69031;DHT22;56083;48.774;8.942;2023-06-04T10:23:35;35.20;48.40
69031;DHT22;56083;48.774;8.942;2023-06-04T10:26:01;34.80;47.90
69031;DHT22;56083;48.774;8.942;2023-06-04T10:28:27;35.00;48.40
69031;DHT22;56083;48.774;8.942;2023-06-04T10:30:53;35.40;48.60
69031;DHT22;56083;48.774;8.942;2023-06-04T10:33:20;35.10;47.40
69031;DHT22;56083;48.774;8.942;2023-06-04T10:35:53;34.70;46.10
69031;DHT22;56083;48.774;8.942;2023-06-04T10:38:19;34.00;47.70
69031;DHT22;56083;48.774;8.942;2023-06-04T10:40:46;34.10;48.30
69031;DHT22;56083;48.774;8.942;2023-06-04T10:43:13;35.00;48.60
69031;DHT22;56083;48.774;8.942;2023-06-04T10:45:41;35.50;45.70
69031;DHT22;56083;48.774;8.942;2023-06-04T10:48:09;36.00;46.10
69031;DHT22;56083;48.774;8.942;2023-06-04T10:50:47;36.00;45.60
69031;DHT22;56083;48.774;8.942;2023-06-04T10:53:13;35.90;45.30
69031;DHT22;56083;48.774;8.942;2023-06-04T10:55:49;36.10;44.90
69031;DHT22;56083;48.774;8.942;2023-06-04T10:58:15;36.60;44.40
69031;DHT22;56083;48.774;8.942;2023-06-04T11:00:45;36.30;43.90
69031;DHT22;56083;48.774;8.942;2023-06-04T11:03:13;36.30;44.90
69031;DHT22;56083;48.774;8.942;2023-06-04T11:05:41;35.90;45.00
69031;DHT22;56083;48.774;8.942;2023-06-04T11:08:08;36.50;45.00
69031;DHT22;56083;48.774;8.942;2023-06-04T11:10:37;37.10;44.90
69031;DHT22;56083;48.774;8.942;2023-06-04T11:13:04;36.90;43.30
69031;DHT22;56083;48.774;8.942;2023-06-04T11:18:14;36.50;44.30
69031;DHT22;56083;48.774;8.942;2023-06-04T11:20:40;36.80;41.20
69031;DHT22;56083;48.774;8.942;2023-06-04T11:23:08;36.80;42.50
69031;DHT22;56083;48.774;8.942;2023-06-04T11:25:33;37.00;42.30
69031;DHT22;56083;48.774;8.942;2023-06-04T11:28:00;37.00;42.80
69031;DHT22;56083;48.774;8.942;2023-06-04T11:30:27;36.40;40.80
69031;DHT22;56083;48.774;8.942;2023-06-04T11:33:04;36.30;43.40
69031;DHT22;56083;48.774;8.942;2023-06-04T11:35:30;36.50;42.20
69031;DHT22;56083;48.774;8.942;2023-06-04T11:37:57;36.90;40.70
69031;DHT22;56083;48.774;8.942;2023-06-04T11:40:24;36.90;42.10
69031;DHT22;56083;48.774;8.942;2023-06-04T11:42:52;37.40;41.20
69031;DHT22;56083;48.774;8.942;2023-06-04T11:45:19;37.60;41.70
69031;DHT22;56083;48.774;8.942;2023-06-04T11:47:53;37.50;41.40
69031;DHT22;56083;48.774;8.942;2023-06-04T11:50:19;38.20;40.60
69031;DHT22;56083;48.774;8.942;2023-06-04T11:52:47;38.10;40.10
69031;DHT22;56083;48.774;8.942;2023-06-04T11:55:13;38.20;40.00
69031;DHT22;56083;48.774;8.942;2023-06-04T11:57:39;38.90;39.30
69031;DHT22;56083;48.774;8.942;2023-06-04T12:00:08;38.90;39.40
69031;DHT22;56083;48.774;8.942;2023-06-04T12:02:37;39.10;39.20
69031;DHT22;56083;48.774;8.942;2023-06-04T12:05:16;38.30;40.10
69031;DHT22;56083;48.774;8.942;2023-06-04T12:07:44;38.80;39.60
69031;DHT22;56083;48.774;8.942;2023-06-04T12:10:11;38.50;38.70
69031;DHT22;56083;48.774;8.942;2023-06-04T12:12:39;38.50;39.40
69031;DHT22;56083;48.774;8.942;2023-06-04T12:15:11;39.00;38.70
69031;DHT22;56083;48.774;8.942;2023-06-04T12:17:48;39.40;38.60
69031;DHT22;56083;48.774;8.942;2023-06-04T12:20:14;40.10;37.50
69031;DHT22;56083;48.774;8.942;2023-06-04T12:22:46;40.00;37.10
69031;DHT22;56083;48.774;8.942;2023-06-04T12:25:22;39.40;35.80
69031;DHT22;56083;48.774;8.942;2023-06-04T12:27:48;39.40;37.20
69031;DHT22;56083;48.774;8.942;2023-06-04T12:30:14;39.70;36.60
69031;DHT22;56083;48.774;8.942;2023-06-04T12:32:41;40.10;36.60
69031;DHT22;56083;48.774;8.942;2023-06-04T12:35:07;39.30;36.00
69031;DHT22;56083;48.774;8.942;2023-06-04T12:37:33;38.80;37.00
69031;DHT22;56083;48.774;8.942;2023-06-04T12:39:59;38.80;37.30
69031;DHT22;56083;48.774;8.942;2023-06-04T12:42:24;38.90;35.00
69031;DHT22;56083;48.774;8.942;2023-06-04T12:44:50;39.00;36.90
69031;DHT22;56083;48.774;8.942;2023-06-04T12:47:16;39.10;35.80
69031;DHT22;56083;48.774;8.942;2023-06-04T12:49:42;38.80;35.30
69031;DHT22;56083;48.774;8.942;2023-06-04T12:52:08;38.90;35.60
69031;DHT22;56083;48.774;8.942;2023-06-04T12:54:33;38.30;36.90
69031;DHT22;56083;48.774;8.942;2023-06-04T12:56:59;37.40;37.50
69031;DHT22;56083;48.774;8.942;2023-06-04T12:59:27;37.00;38.30
69031;DHT22;56083;48.774;8.942;2023-06-04T13:01:54;37.90;36.10
69031;DHT22;56083;48.774;8.942;2023-06-04T13:04:19;38.10;36.30
69031;DHT22;56083;48.774;8.942;2023-06-04T13:06:46;36.80;37.30
69031;DHT22;56083;48.774;8.942;2023-06-04T13:09:12;35.40;37.10
69031;DHT22;56083;48.774;8.942;2023-06-04T13:11:42;35.10;38.80
69031;DHT22;56083;48.774;8.942;2023-06-04T13:14:09;35.00;39.70
69031;DHT22;56083;48.774;8.942;2023-06-04T13:16:35;34.40;39.70
69031;DHT22;56083;48.774;8.942;2023-06-04T13:19:01;34.40;41.10
69031;DHT22;56083;48.774;8.942;2023-06-04T13:21:27;35.40;40.20
69031;DHT22;56083;48.774;8.942;2023-06-04T13:23:53;36.50;38.80
69031;DHT22;56083;48.774;8.942;2023-06-04T13:26:19;36.90;37.80
69031;DHT22;56083;48.774;8.942;2023-06-04T13:28:46;36.60;38.30
69031;DHT22;56083;48.774;8.942;2023-06-04T13:31:11;34.50;39.20
69031;DHT22;56083;48.774;8.942;2023-06-04T13:33:37;35.10;40.20
69031;DHT22;56083;48.774;8.942;2023-06-04T13:36:04;35.50;38.20
69031;DHT22;56083;48.774;8.942;2023-06-04T13:38:30;35.00;38.70
69031;DHT22;56083;48.774;8.942;2023-06-04T13:40:56;35.10;39.70
69031;DHT22;56083;48.774;8.942;2023-06-04T13:43:21;35.90;39.70
69031;DHT22;56083;48.774;8.942;2023-06-04T13:45:47;35.90;38.50
69031;DHT22;56083;48.774;8.942;2023-06-04T13:48:14;36.20;38.50
69031;DHT22;56083;48.774;8.942;2023-06-04T13:50:41;35.00;38.10
69031;DHT22;56083;48.774;8.942;2023-06-04T13:53:08;34.90;40.10
69031;DHT22;56083;48.774;8.942;2023-06-04T13:55:34;35.20;39.30
69031;DHT22;56083;48.774;8.942;2023-06-04T13:58:00;35.70;38.70
69031;DHT22;56083;48.774;8.942;2023-06-04T14:00:26;36.00;38.50
69031;DHT22;56083;48.774;8.942;2023-06-04T14:02:52;36.00;38.50
69031;DHT22;56083;48.774;8.942;2023-06-04T14:05:20;35.70;38.70
69031;DHT22;56083;48.774;8.942;2023-06-04T14:07:46;35.20;39.10
69031;DHT22;56083;48.774;8.942;2023-06-04T14:10:11;34.60;39.60
69031;DHT22;56083;48.774;8.942;2023-06-04T14:12:38;34.90;39.50
69031;DHT22;56083;48.774;8.942;2023-06-04T14:15:07;35.70;38.80
69031;DHT22;56083;48.774;8.942;2023-06-04T14:17:34;36.60;38.40
69031;DHT22;56083;48.774;8.942;2023-06-04T14:20:01;38.30;37.10
69031;DHT22;56083;48.774;8.942;2023-06-04T14:22:26;37.40;36.10
69031;DHT22;56083;48.774;8.942;2023-06-04T14:24:52;36.20;36.60
69031;DHT22;56083;48.774;8.942;2023-06-04T14:27:18;35.90;37.90
69031;DHT22;56083;48.774;8.942;2023-06-04T14:29:43;35.70;38.90
69031;DHT22;56083;48.774;8.942;2023-06-04T14:32:09;35.70;38.20
69031;DHT22;56083;48.774;8.942;2023-06-04T14:34:34;36.50;37.20
69031;DHT22;56083;48.774;8.942;2023-06-04T14:37:00;36.80;35.70
69031;DHT22;56083;48.774;8.942;2023-06-04T14:39:27;37.50;35.60
69031;DHT22;56083;48.774;8.942;2023-06-04T14:41:52;37.40;36.20
69031;DHT22;56083;48.774;8.942;2023-06-04T14:44:18;37.20;38.10
69031;DHT22;56083;48.774;8.942;2023-06-04T14:46:44;37.60;36.20
69031;DHT22;56083;48.774;8.942;2023-06-04T14:49:10;37.90;35.20
69031;DHT22;56083;48.774;8.942;2023-06-04T14:51:35;37.80;35.00
69031;DHT22;56083;48.774;8.942;2023-06-04T14:54:02;38.10;35.70
69031;DHT22;56083;48.774;8.942;2023-06-04T14:56:28;38.10;34.30
69031;DHT22;56083;48.774;8.942;2023-06-04T14:58:55;37.90;34.80
69031;DHT22;56083;48.774;8.942;2023-06-04T15:01:21;37.80;34.30
69031;DHT22;56083;48.774;8.942;2023-06-04T15:03:49;37.90;35.40
69031;DHT22;56083;48.774;8.942;2023-06-04T15:06:16;37.50;34.40
69031;DHT22;56083;48.774;8.942;2023-06-04T15:08:41;37.20;34.70
69031;DHT22;56083;48.774;8.942;2023-06-04T15:11:07;37.20;34.80
69031;DHT22;56083;48.774;8.942;2023-06-04T15:13:33;36.90;34.10
69031;DHT22;56083;48.774;8.942;2023-06-04T15:15:58;37.00;34.90
69031;DHT22;56083;48.774;8.942;2023-06-04T15:18:24;37.10;35.00
69031;DHT22;56083;48.774;8.942;2023-06-04T15:20:49;36.70;35.10
69031;DHT22;56083;48.774;8.942;2023-06-04T15:23:15;37.30;34.20
69031;DHT22;56083;48.774;8.942;2023-06-04T15:25:43;37.00;34.30
69031;DHT22;56083;48.774;8.942;2023-06-04T15:28:09;36.70;33.90
69031;DHT22;56083;48.774;8.942;2023-06-04T15:30:34;36.80;36.10
69031;DHT22;56083;48.774;8.942;2023-06-04T15:33:00;36.80;33.80
69031;DHT22;56083;48.774;8.942;2023-06-04T15:35:27;36.20;36.00
69031;DHT22;56083;48.774;8.942;2023-06-04T15:37:53;35.90;35.20